createdAt,value
2019-04-27T00:00:45.285Z,51.03
2019-04-27T00:03:16.074Z,50.55
2019-04-27T00:05:45.175Z,50.20
2019-04-27T00:08:23.990Z,50.34
2019-04-27T00:10:53.271Z,50.09
2019-04-27T00:13:22.941Z,51.03
2019-04-27T00:15:55.210Z,50.98
2019-04-27T00:18:24.075Z,50.61
2019-04-27T00:20:53.553Z,50.56
2019-04-27T00:23:25.415Z,50.73
2019-04-27T00:25:52.819Z,50.69
2019-04-27T00:28:19.615Z,50.87
2019-04-27T00:30:46.822Z,50.91
2019-04-27T00:33:13.789Z,51.67
2019-04-27T00:35:58.622Z,51.55
2019-04-27T00:38:27.267Z,51.99
2019-04-27T00:40:56.296Z,51.97
2019-04-27T00:43:23.149Z,51.64
2019-04-27T00:45:50.053Z,52.17
2019-04-27T00:48:16.995Z,51.95
2019-04-27T00:50:43.961Z,51.86
2019-04-27T00:53:13.260Z,51.68
2019-04-27T00:55:43.489Z,51.93
2019-04-27T00:58:24.389Z,51.82
2019-04-27T01:01:04.131Z,51.74
2019-04-27T01:03:35.723Z,52.32
2019-04-27T01:06:03.216Z,52.17
2019-04-27T01:08:30.514Z,52.02
2019-04-27T01:10:57.413Z,51.89
2019-04-27T01:13:24.677Z,52.08
2019-04-27T01:15:51.409Z,52.20
2019-04-27T01:18:19.499Z,52.69
2019-04-27T01:20:46.527Z,52.79
2019-04-27T01:23:13.500Z,52.84
2019-04-27T01:26:00.697Z,53.04
2019-04-27T01:28:35.320Z,53.37
2019-04-27T01:31:06.487Z,53.52
2019-04-27T01:33:33.527Z,54.00
2019-04-27T01:36:00.293Z,55.07
2019-04-27T01:38:29.096Z,54.96
2019-04-27T01:40:56.194Z,54.88
2019-04-27T01:43:23.252Z,54.70
2019-04-27T01:45:50.704Z,56.54
2019-04-27T01:48:23.791Z,55.54
2019-04-27T01:50:46.162Z,55.17
2019-04-27T01:53:14.291Z,55.97
2019-04-27T01:55:41.532Z,56.36
2019-04-27T01:58:10.863Z,55.72
2019-04-27T02:00:50.812Z,55.98
2019-04-27T02:03:20.655Z,55.62
2019-04-27T02:05:49.353Z,56.16
2019-04-27T02:08:17.078Z,55.84
2019-04-27T02:10:43.839Z,55.83
2019-04-27T02:13:11.505Z,55.84
2019-04-27T02:15:39.585Z,56.03
2019-04-27T02:18:06.498Z,56.83
2019-04-27T02:20:33.252Z,59.32
2019-04-27T02:23:00.386Z,57.87
2019-04-27T02:25:29.349Z,57.45
2019-04-27T02:28:00.986Z,57.11
2019-04-27T02:30:35.677Z,58.49
2019-04-27T02:33:16.266Z,60.70
2019-04-27T02:35:43.177Z,60.20
2019-04-27T02:38:10.150Z,59.16
2019-04-27T02:40:53.642Z,58.76
2019-04-27T02:43:22.669Z,58.89
2019-04-27T02:45:50.362Z,57.82
2019-04-27T02:48:19.705Z,57.89
2019-04-27T02:50:49.978Z,58.88
2019-04-27T02:53:19.692Z,58.89
2019-04-27T02:55:46.164Z,58.97
2019-04-27T02:58:13.590Z,59.24
2019-04-27T03:00:40.896Z,59.37
2019-04-27T03:03:10.160Z,60.28
2019-04-27T03:05:39.661Z,61.12
2019-04-27T03:08:06.573Z,61.42
2019-04-27T03:10:33.592Z,61.67
2019-04-27T03:13:07.829Z,63.03
2019-04-27T03:15:36.497Z,62.90
2019-04-27T03:18:09.884Z,64.41
2019-04-27T03:20:40.918Z,63.49
2019-04-27T03:23:09.777Z,62.78
2019-04-27T03:25:40.060Z,62.38
2019-04-27T03:28:10.858Z,61.40
2019-04-27T03:30:42.575Z,62.53
2019-04-27T03:33:11.878Z,62.67
2019-04-27T03:35:37.519Z,63.48
2019-04-27T03:38:06.166Z,63.03
2019-04-27T03:40:33.083Z,63.50
2019-04-27T03:43:02.092Z,63.37
2019-04-27T03:45:29.909Z,63.37
2019-04-27T03:47:57.168Z,63.00
2019-04-27T03:50:30.373Z,63.03
2019-04-27T03:52:59.959Z,63.41
2019-04-27T03:55:30.555Z,63.07
2019-04-27T03:58:00.147Z,63.67
2019-04-27T04:00:30.063Z,63.16
2019-04-27T04:02:57.454Z,63.04
2019-04-27T04:05:24.329Z,62.09
2019-04-27T04:07:51.231Z,61.80
2019-04-27T04:10:19.823Z,61.55
2019-04-27T04:13:01.629Z,61.72
2019-04-27T04:15:30.427Z,62.32
2019-04-27T04:17:59.311Z,62.90
2019-04-27T04:20:25.492Z,62.53
2019-04-27T04:22:52.186Z,62.85
2019-04-27T04:25:20.033Z,63.46
2019-04-27T04:27:46.743Z,63.92
2019-04-27T04:30:13.608Z,63.57
2019-04-27T04:32:40.220Z,64.10
2019-04-27T04:35:20.716Z,64.00
2019-04-27T04:37:45.859Z,64.89
2019-04-27T04:40:12.750Z,65.46
2019-04-27T04:42:41.315Z,65.51
2019-04-27T04:45:12.983Z,63.55
2019-04-27T04:47:41.601Z,62.39
2019-04-27T04:50:14.446Z,62.01
2019-04-27T04:52:39.740Z,61.53
2019-04-27T04:55:05.281Z,60.97
2019-04-27T04:57:31.999Z,61.56
2019-04-27T04:59:59.314Z,63.58
2019-04-27T05:02:26.105Z,63.60
2019-04-27T05:04:52.826Z,63.02
2019-04-27T05:07:19.784Z,60.33
2019-04-27T05:09:46.524Z,62.44
2019-04-27T05:12:13.221Z,62.27
2019-04-27T05:14:40.761Z,58.26
2019-04-27T05:17:09.316Z,56.58
2019-04-27T05:19:35.787Z,57.60
2019-04-27T05:22:02.619Z,55.36
2019-04-27T05:24:29.368Z,56.54
2019-04-27T05:26:56.119Z,58.91
2019-04-27T05:29:22.679Z,58.36
2019-04-27T05:31:49.263Z,59.87
2019-04-27T05:34:15.758Z,61.79
2019-04-27T05:36:48.697Z,59.69
2019-04-27T05:39:13.226Z,62.20
2019-04-27T05:41:41.746Z,61.49
2019-04-27T05:44:12.623Z,61.01
2019-04-27T05:46:40.445Z,64.18
2019-04-27T05:49:21.729Z,63.48
2019-04-27T05:51:50.111Z,63.71
2019-04-27T05:54:16.884Z,62.83
2019-04-27T05:56:43.529Z,61.97
2019-04-27T05:59:10.121Z,62.20
2019-04-27T06:01:38.747Z,63.63
2019-04-27T06:04:05.171Z,63.66
2019-04-27T06:06:31.775Z,63.83
2019-04-27T06:08:59.557Z,65.07
2019-04-27T06:11:26.145Z,64.81
2019-04-27T06:13:52.879Z,64.12
2019-04-27T06:16:20.573Z,64.74
2019-04-27T06:18:47.084Z,65.08
2019-04-27T06:21:13.726Z,65.50
2019-04-27T06:23:40.407Z,64.90
2019-04-27T06:26:11.373Z,64.61
2019-04-27T06:28:35.784Z,64.49
2019-04-27T06:31:02.419Z,64.75
2019-04-27T06:33:34.070Z,65.78
2019-04-27T06:35:59.465Z,65.96
2019-04-27T06:38:26.166Z,65.80
2019-04-27T06:40:52.947Z,65.76
2019-04-27T06:43:20.624Z,65.77
2019-04-27T06:45:48.833Z,66.62
2019-04-27T06:48:15.796Z,66.19
2019-04-27T06:50:42.437Z,66.54
2019-04-27T06:53:09.222Z,66.75
2019-04-27T06:55:35.977Z,66.45
2019-04-27T06:58:02.761Z,65.92
2019-04-27T07:00:29.522Z,67.19
2019-04-27T07:02:56.327Z,66.63
2019-04-27T07:05:23.829Z,66.82
2019-04-27T07:07:50.608Z,66.60
2019-04-27T07:10:18.576Z,67.07
2019-04-27T07:12:45.382Z,67.05
2019-04-27T07:15:12.154Z,66.80
2019-04-27T07:17:39.100Z,67.19
2019-04-27T07:20:05.748Z,66.63
2019-04-27T07:22:32.489Z,66.69
2019-04-27T07:24:59.345Z,68.09
2019-04-27T07:27:26.260Z,68.48
2019-04-27T07:29:53.701Z,67.75
2019-04-27T07:32:20.800Z,67.23
2019-04-27T07:34:47.561Z,67.12
2019-04-27T07:37:15.259Z,66.40
2019-04-27T07:39:41.926Z,65.83
2019-04-27T07:42:08.683Z,66.19
2019-04-27T07:44:43.440Z,66.61
2019-04-27T07:47:14.498Z,66.54
2019-04-27T07:49:41.155Z,66.14
2019-04-27T07:52:08.731Z,66.89
2019-04-27T07:54:35.539Z,67.55
2019-04-27T07:57:02.254Z,67.58
2019-04-27T07:59:29.494Z,67.12
2019-04-27T08:01:59.124Z,67.37
2019-04-27T08:04:25.816Z,67.73
2019-04-27T08:06:52.701Z,67.30
2019-04-27T08:09:19.543Z,67.49
2019-04-27T08:11:46.173Z,67.08
2019-04-27T08:14:13.075Z,67.29
2019-04-27T08:16:39.788Z,67.80
2019-04-27T08:19:07.020Z,67.29
2019-04-27T08:21:43.575Z,67.39
2019-04-27T08:24:02.756Z,67.10
2019-04-27T08:26:32.701Z,67.50
2019-04-27T08:29:01.344Z,66.94
2019-04-27T08:31:31.163Z,67.18
2019-04-27T08:33:58.587Z,68.05
2019-04-27T08:36:26.700Z,68.26
2019-04-27T08:38:53.595Z,67.81
2019-04-27T08:41:21.277Z,68.12
2019-04-27T08:43:48.883Z,68.00
2019-04-27T08:46:15.915Z,67.47
2019-04-27T08:48:42.760Z,67.66
2019-04-27T08:51:09.623Z,67.89
2019-04-27T08:53:36.482Z,68.11
2019-04-27T08:56:03.102Z,67.86
2019-04-27T08:58:30.338Z,67.57
2019-04-27T09:00:58.919Z,67.72
2019-04-27T09:03:25.750Z,67.76
2019-04-27T09:05:53.020Z,67.70
2019-04-27T09:08:30.782Z,67.89
2019-04-27T09:11:08.896Z,69.01
2019-04-27T09:13:37.572Z,68.71
2019-04-27T09:16:15.007Z,68.36
2019-04-27T09:18:42.157Z,68.69
2019-04-27T09:21:10.564Z,68.45
2019-04-27T09:25:00.887Z,68.78
2019-04-27T09:27:29.070Z,69.06
2019-04-27T09:29:56.331Z,68.58
2019-04-27T09:32:23.164Z,68.45
2019-04-27T09:34:50.064Z,68.83
2019-04-27T09:37:17.111Z,69.15
2019-04-27T09:39:44.305Z,69.29
2019-04-27T09:42:12.885Z,69.16
2019-04-27T09:44:42.166Z,69.47
2019-04-27T09:47:10.829Z,69.38
2019-04-27T09:49:38.413Z,68.88
2019-04-27T09:52:06.352Z,68.65
2019-04-27T09:54:33.608Z,68.85
2019-04-27T09:57:00.372Z,68.90
2019-04-27T09:59:27.678Z,69.07
2019-04-27T10:01:55.584Z,68.38
2019-04-27T10:04:23.952Z,68.98
2019-04-27T10:06:50.652Z,68.71
2019-04-27T10:09:17.817Z,68.79
2019-04-27T10:11:44.998Z,69.19
2019-04-27T10:14:12.153Z,69.65
2019-04-27T10:16:39.114Z,69.93
2019-04-27T10:19:06.137Z,70.76
2019-04-27T10:21:32.859Z,71.01
2019-04-27T10:23:59.936Z,70.98
2019-04-27T10:26:26.877Z,71.42
2019-04-27T10:28:53.846Z,71.18
2019-04-27T10:31:23.116Z,71.47
2019-04-27T10:33:50.157Z,71.33
2019-04-27T10:36:18.778Z,72.22
2019-04-27T10:38:47.560Z,72.11
2019-04-27T10:41:15.803Z,71.28
2019-04-27T10:43:42.656Z,70.88
2019-04-27T10:46:09.917Z,71.02
2019-04-27T10:48:36.929Z,70.81
2019-04-27T10:51:07.111Z,70.66
2019-04-27T10:53:33.034Z,70.65
2019-04-27T10:55:59.860Z,70.96
2019-04-27T10:58:28.455Z,71.61
2019-04-27T11:00:58.446Z,71.30
2019-04-27T11:03:27.364Z,71.28
2019-04-27T11:06:05.925Z,71.79
2019-04-27T11:08:33.217Z,71.45
2019-04-27T11:11:00.113Z,71.50
2019-04-27T11:13:26.902Z,72.41
2019-04-27T11:15:53.852Z,72.19
2019-04-27T11:18:20.897Z,72.29
2019-04-27T11:20:48.456Z,72.17
2019-04-27T11:23:16.393Z,71.18
2019-04-27T11:25:43.474Z,70.04
2019-04-27T11:28:10.237Z,70.04
2019-04-27T11:30:36.834Z,70.29
2019-04-27T11:33:06.080Z,69.78
2019-04-27T11:35:35.665Z,69.51
2019-04-27T11:38:03.505Z,68.71
2019-04-27T11:40:30.683Z,67.77
2019-04-27T11:42:57.426Z,67.44
2019-04-27T11:45:26.493Z,67.60
2019-04-27T11:47:53.045Z,67.69
2019-04-27T11:50:20.325Z,67.94
2019-04-27T11:52:47.258Z,67.43
2019-04-27T11:55:15.939Z,67.24
2019-04-27T11:57:42.936Z,66.58
2019-04-27T12:00:12.138Z,66.61
2019-04-27T12:02:39.139Z,66.27
2019-04-27T12:05:08.329Z,66.41
2019-04-27T12:07:35.360Z,65.81
2019-04-27T12:10:03.143Z,66.09
2019-04-27T12:12:30.994Z,66.40
2019-04-27T12:14:57.820Z,66.56
2019-04-27T12:17:26.702Z,66.62
2019-04-27T12:19:54.655Z,66.46
2019-04-27T12:22:21.763Z,66.75
2019-04-27T12:24:48.604Z,66.77
2019-04-27T12:27:25.738Z,66.44
2019-04-27T12:30:10.894Z,65.98
2019-04-27T12:32:37.692Z,65.56
2019-04-27T12:35:06.611Z,65.57
2019-04-27T12:37:33.146Z,65.29
2019-04-27T12:39:59.938Z,65.62
2019-04-27T12:42:26.947Z,65.70
2019-04-27T12:44:54.173Z,65.36
2019-04-27T12:47:21.045Z,65.00
2019-04-27T12:49:47.768Z,65.22
2019-04-27T12:52:15.925Z,65.29
2019-04-27T12:54:46.537Z,65.16
2019-04-27T12:57:26.423Z,65.42
2019-04-27T12:59:57.894Z,64.88
2019-04-27T13:02:26.789Z,65.34
2019-04-27T13:04:56.665Z,65.38
2019-04-27T13:07:23.587Z,65.72
2019-04-27T13:09:50.622Z,66.42
2019-04-27T13:12:17.611Z,67.51
2019-04-27T13:14:45.724Z,68.18
2019-04-27T13:17:13.561Z,68.70
2019-04-27T13:19:40.349Z,68.63
2019-04-27T13:22:07.091Z,68.81
2019-04-27T13:24:35.594Z,68.87
2019-04-27T13:27:02.672Z,68.78
2019-04-27T13:29:30.992Z,68.85
2019-04-27T13:31:57.828Z,69.05
2019-04-27T13:34:24.931Z,68.99
2019-04-27T13:36:51.865Z,68.59
2019-04-27T13:39:18.688Z,69.15
2019-04-27T13:41:46.290Z,69.44
2019-04-27T13:44:13.451Z,69.11
2019-04-27T13:46:46.015Z,69.35
2019-04-27T13:49:26.974Z,69.54
2019-04-27T13:51:57.414Z,70.10
2019-04-27T13:54:27.211Z,70.35
2019-04-27T13:56:53.873Z,70.79
2019-04-27T13:59:21.876Z,70.33
2019-04-27T14:01:49.102Z,69.86
2019-04-27T14:04:17.499Z,69.96
2019-04-27T14:06:44.318Z,69.45
2019-04-27T14:09:12.734Z,69.68
2019-04-27T14:11:40.694Z,69.42
2019-04-27T14:14:07.821Z,69.48
2019-04-27T14:16:34.771Z,69.71
2019-04-27T14:19:01.731Z,69.42
2019-04-27T14:21:29.606Z,68.84
2019-04-27T14:23:58.541Z,68.79
2019-04-27T14:26:25.653Z,68.52
2019-04-27T14:28:52.635Z,68.92
2019-04-27T14:31:19.608Z,69.29
2019-04-27T14:33:48.314Z,69.53
2019-04-27T14:36:15.447Z,69.18
2019-04-27T14:38:42.498Z,69.29
2019-04-27T14:41:09.374Z,68.79
2019-04-27T14:43:36.800Z,68.64
2019-04-27T14:46:03.625Z,68.54
2019-04-27T14:48:31.657Z,68.68
2019-04-27T14:50:59.027Z,68.48
2019-04-27T14:53:26.018Z,68.17
2019-04-27T14:55:52.776Z,68.25
2019-04-27T14:58:19.689Z,68.65
2019-04-27T15:00:46.483Z,68.80
2019-04-27T15:03:14.445Z,69.02
2019-04-27T15:05:41.667Z,68.94
2019-04-27T15:08:09.938Z,68.98
2019-04-27T15:10:36.985Z,69.10
2019-04-27T15:13:06.524Z,69.13
2019-04-27T15:15:33.724Z,69.30
2019-04-27T15:18:04.496Z,69.33
2019-04-27T15:20:32.826Z,69.33
2019-04-27T15:23:00.344Z,69.41
2019-04-27T15:25:27.197Z,69.29
2019-04-27T15:27:58.807Z,69.79
2019-04-27T15:30:30.467Z,69.81
2019-04-27T15:33:16.309Z,69.54
2019-04-27T15:35:48.851Z,69.20
2019-04-27T15:38:20.511Z,69.30
2019-04-27T15:41:06.031Z,69.29
2019-04-27T15:43:34.855Z,69.22
2019-04-27T15:46:01.951Z,69.15
2019-04-27T15:48:30.661Z,68.97
2019-04-27T15:51:02.812Z,69.24
2019-04-27T15:53:26.238Z,69.53
2019-04-27T15:55:53.653Z,69.73
2019-04-27T15:58:25.105Z,69.68
2019-04-27T16:00:56.246Z,69.47
2019-04-27T16:03:22.710Z,69.54
2019-04-27T16:05:49.074Z,70.03
2019-04-27T16:08:15.914Z,69.96
2019-04-27T16:10:43.056Z,69.97
2019-04-27T16:13:15.002Z,69.93
2019-04-27T16:15:38.684Z,70.34
2019-04-27T16:18:08.662Z,69.84
2019-04-27T16:20:35.904Z,69.47
2019-04-27T16:23:04.411Z,69.15
2019-04-27T16:25:45.282Z,69.02
2019-04-27T16:28:04.606Z,68.84
2019-04-27T16:30:29.578Z,68.59
2019-04-27T16:32:58.365Z,68.43
2019-04-27T16:35:28.263Z,68.31
2019-04-27T16:38:09.627Z,68.00
2019-04-27T16:40:36.648Z,67.93
2019-04-27T16:43:03.395Z,68.21
2019-04-27T16:45:32.658Z,68.02
2019-04-27T16:48:03.029Z,68.06
2019-04-27T16:50:30.239Z,68.04
2019-04-27T16:53:00.943Z,67.98
2019-04-27T16:55:27.958Z,67.97
2019-04-27T16:57:54.449Z,67.87
2019-04-27T17:00:22.742Z,67.95
2019-04-27T17:02:50.419Z,68.04
2019-04-27T17:05:17.282Z,67.91
2019-04-27T17:07:44.730Z,68.47
2019-04-27T17:10:16.314Z,68.20
2019-04-27T17:12:45.905Z,68.31
2019-04-27T17:15:30.858Z,68.28
2019-04-27T17:18:20.007Z,68.43
2019-04-27T17:20:52.538Z,68.09
2019-04-27T17:23:26.351Z,68.27
2019-04-27T17:25:57.217Z,68.62
2019-04-27T17:28:23.915Z,68.48
2019-04-27T17:30:51.209Z,68.31
2019-04-27T17:33:23.028Z,68.62
2019-04-27T17:35:50.006Z,68.50
2019-04-27T17:38:18.177Z,68.40
2019-04-27T17:40:45.560Z,68.45
2019-04-27T17:43:12.584Z,68.68
2019-04-27T17:45:39.755Z,68.82
2019-04-27T17:48:10.301Z,68.87
2019-04-27T17:50:36.334Z,68.67
2019-04-27T17:53:03.342Z,68.41
2019-04-27T17:55:29.961Z,68.60
2019-04-27T17:58:04.756Z,68.54
2019-04-27T18:00:28.071Z,68.62
2019-04-27T18:02:57.877Z,68.48
2019-04-27T18:05:24.634Z,68.27
2019-04-27T18:07:52.078Z,68.34
2019-04-27T18:10:23.874Z,68.00
2019-04-27T18:12:48.677Z,68.27
2019-04-27T18:15:18.317Z,68.10
2019-04-27T18:17:50.108Z,68.26
2019-04-27T18:20:23.572Z,68.24
2019-04-27T18:22:55.588Z,68.20
2019-04-27T18:25:22.450Z,68.26
2019-04-27T18:28:00.412Z,68.16
2019-04-27T18:30:29.406Z,67.76
2019-04-27T18:32:59.391Z,67.81
2019-04-27T18:35:26.160Z,67.64
2019-04-27T18:38:00.132Z,67.63
2019-04-27T18:40:31.869Z,67.97
2019-04-27T18:42:52.993Z,68.04
2019-04-27T18:45:20.412Z,67.87
2019-04-27T18:47:48.869Z,67.99
2019-04-27T18:50:20.888Z,67.90
2019-04-27T18:52:52.856Z,68.07
2019-04-27T18:55:20.855Z,68.41
2019-04-27T18:57:50.862Z,68.38
2019-04-27T19:00:18.041Z,68.59
2019-04-27T19:02:45.002Z,68.90
2019-04-27T19:05:11.950Z,69.04
2019-04-27T19:07:38.879Z,69.06
2019-04-27T19:10:06.062Z,69.06
2019-04-27T19:12:33.322Z,69.17
2019-04-27T19:15:00.337Z,69.12
2019-04-27T19:17:28.204Z,69.27
2019-04-27T19:19:55.151Z,69.22
2019-04-27T19:22:22.754Z,69.47
2019-04-27T19:24:50.384Z,69.34
2019-04-27T19:27:29.766Z,69.61
2019-04-27T19:30:01.702Z,69.81
2019-04-27T19:32:29.653Z,70.09
2019-04-27T19:34:56.710Z,69.90
2019-04-27T19:37:23.678Z,70.19
2019-04-27T19:39:50.895Z,70.18
2019-04-27T19:42:19.936Z,70.31
2019-04-27T19:44:48.120Z,70.25
2019-04-27T19:47:17.916Z,70.68
2019-04-27T19:49:44.681Z,70.52
2019-04-27T19:52:11.887Z,70.28
2019-04-27T19:54:39.827Z,70.31
2019-04-27T19:57:06.874Z,70.42
2019-04-27T19:59:44.771Z,70.35
2019-04-27T20:02:13.603Z,70.14
2019-04-27T20:04:41.344Z,70.27
2019-04-27T20:07:10.529Z,70.50
2019-04-27T20:09:49.974Z,70.66
2019-04-27T20:12:17.343Z,70.56
2019-04-27T20:14:56.216Z,70.65
2019-04-27T20:17:26.910Z,70.68
2019-04-27T20:19:54.085Z,70.48
2019-04-27T20:22:24.052Z,70.33
2019-04-27T20:24:51.321Z,69.97
2019-04-27T20:27:20.930Z,70.32
2019-04-27T20:29:47.821Z,70.45
2019-04-27T20:32:14.851Z,69.99
2019-04-27T20:34:42.265Z,69.74
2019-04-27T20:37:09.095Z,70.33
2019-04-27T20:39:36.194Z,69.89
2019-04-27T20:42:03.519Z,69.76
2019-04-27T20:44:31.178Z,69.64
2019-04-27T20:46:58.283Z,69.44
2019-04-27T20:49:25.592Z,68.87
2019-04-27T20:52:01.016Z,68.04
2019-04-27T20:54:28.205Z,67.87
2019-04-27T20:56:57.338Z,68.09
2019-04-27T20:59:25.972Z,67.34
2019-04-27T21:01:52.793Z,66.96
2019-04-27T21:04:21.556Z,67.09
2019-04-27T21:07:02.401Z,68.10
2019-04-27T21:09:29.722Z,68.26
2019-04-27T21:11:56.514Z,68.56
2019-04-27T21:14:23.326Z,69.31
2019-04-27T21:16:51.685Z,69.70
2019-04-27T21:19:20.897Z,69.96
2019-04-27T21:21:47.655Z,69.81
2019-04-27T21:24:15.126Z,70.19
2019-04-27T21:26:42.022Z,70.42
2019-04-27T21:29:08.874Z,70.49
2019-04-27T21:31:35.931Z,70.29
2019-04-27T21:34:03.178Z,70.44
2019-04-27T21:36:30.996Z,70.34
2019-04-27T21:38:57.886Z,70.71
2019-04-27T21:41:24.634Z,70.77
2019-04-27T21:43:51.571Z,70.84
2019-04-27T21:46:21.013Z,71.10
2019-04-27T21:48:47.866Z,71.26
2019-04-27T21:51:14.940Z,71.35
2019-04-27T21:53:45.524Z,71.68
2019-04-27T21:56:12.691Z,71.83
2019-04-27T21:58:41.800Z,71.80
2019-04-27T22:01:28.662Z,71.68
2019-04-27T22:03:56.757Z,71.58
2019-04-27T22:06:23.587Z,71.76
2019-04-27T22:08:51.173Z,71.53
2019-04-27T22:11:18.264Z,71.37
2019-04-27T22:13:45.357Z,71.65
2019-04-27T22:16:13.071Z,73.15
2019-04-27T22:18:41.698Z,74.28
2019-04-27T22:21:09.262Z,74.56
2019-04-27T22:23:58.515Z,74.44
2019-04-27T22:26:25.618Z,74.34
2019-04-27T22:28:52.511Z,74.40
2019-04-27T22:31:21.207Z,74.49
2019-04-27T22:33:51.935Z,74.32
2019-04-27T22:36:17.343Z,74.13
2019-04-27T22:38:44.661Z,74.37
2019-04-27T22:41:14.614Z,74.58
2019-04-27T22:43:46.279Z,74.29
2019-04-27T22:46:15.274Z,74.61
2019-04-27T22:48:43.462Z,74.67
2019-04-27T22:51:11.855Z,75.63
2019-04-27T22:53:38.764Z,76.73
2019-04-27T22:56:14.267Z,76.68
2019-04-27T22:58:43.036Z,77.55
2019-04-27T23:01:18.042Z,77.34
2019-04-27T23:03:46.924Z,77.55
2019-04-27T23:06:14.977Z,77.50
2019-04-27T23:08:41.941Z,77.60
2019-04-27T23:11:10.822Z,77.56
2019-04-27T23:13:37.540Z,77.52
2019-04-27T23:16:06.302Z,77.32
2019-04-27T23:18:33.414Z,76.89
2019-04-27T23:21:01.548Z,77.25
2019-04-27T23:23:30.898Z,76.47
2019-04-27T23:25:59.045Z,75.94
2019-04-27T23:28:26.774Z,75.54
2019-04-27T23:31:02.111Z,75.99
2019-04-27T23:33:31.164Z,76.14
2019-04-27T23:35:58.314Z,75.81
2019-04-27T23:38:25.331Z,75.63
2019-04-27T23:40:52.311Z,74.91
2019-04-27T23:43:20.278Z,74.85
2019-04-27T23:45:48.185Z,74.94
2019-04-27T23:48:15.840Z,75.19
2019-04-27T23:50:44.640Z,74.36
2019-04-27T23:53:18.771Z,74.58
2019-04-27T23:55:46.004Z,75.55
2019-04-27T23:58:13.066Z,74.66
